Time;durP1;ratioP1;P1;durP2;ratioP2;P2;SDS_P1;SDS_P2;PMS_P1;PMS_P2;Temp;Humidity;BMP_temperature;BMP_pressure;BME280_temperature;BME280_humidity;BME280_pressure;Samples;Min_cycle;Max_cycle;Signal;HPM_P1;HPM_P2
2023/01/19 00:00:49;;;;;;;11.23;7.27;;;;;;;;;;5071485;28;20478;-54
2023/01/19 00:03:15;;;;;;;10.13;7.60;;;;;;;;;;5071432;28;20947;-54
2023/01/19 00:05:41;;;;;;;8.90;8.00;;;;;;;;;;5071369;28;20948;-54
2023/01/19 00:08:14;;;;;;;10.40;7.37;;;;;;;;;;5071470;28;20430;-55
2023/01/19 00:10:41;;;;;;;10.23;7.97;;;;;;;;;;5071555;28;20461;-54
2023/01/19 00:13:07;;;;;;;9.67;7.73;;;;;;;;;;5071204;28;20469;-54
2023/01/19 00:15:33;;;;;;;9.07;7.83;;;;;;;;;;5071285;28;20875;-54
2023/01/19 00:17:59;;;;;;;10.63;7.77;;;;;;;;;;5070895;28;20199;-55
2023/01/19 00:20:25;;;;;;;8.87;7.47;;;;;;;;;;5071104;28;20534;-54
2023/01/19 00:22:51;;;;;;;10.03;7.80;;;;;;;;;;5071019;28;20565;-55
2023/01/19 00:25:17;;;;;;;12.17;8.40;;;;;;;;;;5070746;28;20855;-53
2023/01/19 00:27:48;;;;;;;9.87;8.10;;;;;;;;;;5066848;28;20488;-56
2023/01/19 00:30:14;;;;;;;9.30;7.80;;;;;;;;;;5070949;28;20929;-58
2023/01/19 00:32:40;;;;;;;10.03;7.10;;;;;;;;;;5070843;28;20449;-57
2023/01/19 00:35:06;;;;;;;10.93;7.83;;;;;;;;;;5070659;28;20444;-58
2023/01/19 00:37:32;;;;;;;10.70;7.67;;;;;;;;;;5070455;28;20841;-57
2023/01/19 00:39:58;;;;;;;8.50;7.63;;;;;;;;;;5070866;28;20529;-58
2023/01/19 00:42:39;;;;;;;11.47;8.00;;;;;;;;;;5070794;28;20216;-57
2023/01/19 00:45:08;;;;;;;9.00;7.77;;;;;;;;;;5070404;28;20558;-57
2023/01/19 00:47:34;;;;;;;9.17;7.63;;;;;;;;;;5070615;28;20446;-58
2023/01/19 00:50:00;;;;;;;12.00;7.73;;;;;;;;;;5070456;28;20437;-57
2023/01/19 00:52:26;;;;;;;11.63;7.97;;;;;;;;;;5070559;28;20788;-57
2023/01/19 00:54:52;;;;;;;9.23;7.70;;;;;;;;;;5070366;28;20927;-58
2023/01/19 00:57:18;;;;;;;11.00;8.23;;;;;;;;;;5070171;28;20210;-58
2023/01/19 00:59:44;;;;;;;9.10;7.83;;;;;;;;;;5070258;28;20669;-57
2023/01/19 01:02:11;;;;;;;8.70;7.63;;;;;;;;;;5070098;28;20572;-59
2023/01/19 01:04:37;;;;;;;10.03;8.13;;;;;;;;;;5069388;28;20243;-55
2023/01/19 01:07:03;;;;;;;9.70;8.00;;;;;;;;;;5070176;28;20864;-56
2023/01/19 01:09:30;;;;;;;11.50;8.50;;;;;;;;;;5069867;28;20770;-55
2023/01/19 01:11:56;;;;;;;10.13;8.93;;;;;;;;;;5069968;28;20473;-54
2023/01/19 01:14:22;;;;;;;9.63;8.13;;;;;;;;;;5070237;28;20423;-55
2023/01/19 01:16:48;;;;;;;9.83;8.03;;;;;;;;;;5070107;28;20253;-56
2023/01/19 01:19:16;;;;;;;14.07;8.70;;;;;;;;;;5070271;28;20434;-55
2023/01/19 01:21:42;;;;;;;12.47;8.47;;;;;;;;;;5070027;28;20561;-55
2023/01/19 01:24:09;;;;;;;9.00;8.00;;;;;;;;;;5069738;28;20449;-55
2023/01/19 01:26:35;;;;;;;10.50;8.53;;;;;;;;;;5070030;28;20434;-54
2023/01/19 01:29:01;;;;;;;10.00;8.30;;;;;;;;;;5069784;28;20989;-55
2023/01/19 01:31:27;;;;;;;10.77;8.73;;;;;;;;;;5070104;28;20204;-55
2023/01/19 01:33:53;;;;;;;8.80;7.93;;;;;;;;;;5069758;28;20499;-56
2023/01/19 01:36:21;;;;;;;14.63;8.37;;;;;;;;;;5069708;28;20738;-55
2023/01/19 01:38:47;;;;;;;10.00;8.40;;;;;;;;;;5069923;28;20465;-55
2023/01/19 01:41:13;;;;;;;11.57;8.53;;;;;;;;;;5069445;28;20578;-55
2023/01/19 01:43:43;;;;;;;9.73;8.73;;;;;;;;;;5070001;28;20661;-55
2023/01/19 01:46:09;;;;;;;15.70;8.47;;;;;;;;;;5069968;28;20473;-55
2023/01/19 01:48:36;;;;;;;9.47;8.47;;;;;;;;;;5069756;28;20442;-55
2023/01/19 01:51:22;;;;;;;11.13;7.97;;;;;;;;;;5069639;28;20826;-55
2023/01/19 01:53:52;;;;;;;11.53;8.80;;;;;;;;;;5069683;28;20509;-56
2023/01/19 01:56:20;;;;;;;9.90;8.37;;;;;;;;;;5069663;28;20529;-55
2023/01/19 01:58:48;;;;;;;10.87;8.50;;;;;;;;;;5069537;28;20434;-55
2023/01/19 02:03:59;;;;;;;14.53;9.63;;;;;;;;;;5089782;28;20482;-56
2023/01/19 02:06:25;;;;;;;12.40;8.90;;;;;;;;;;5089622;28;20443;-55
2023/01/19 02:14:23;;;;;;;11.97;8.97;;;;;;;;;;5089690;28;20428;-54
2023/01/19 02:16:49;;;;;;;10.70;9.07;;;;;;;;;;5092016;28;20441;-54
2023/01/19 02:19:17;;;;;;;15.17;9.17;;;;;;;;;;5093750;28;20480;-54
2023/01/19 02:21:46;;;;;;;13.53;9.17;;;;;;;;;;5093568;28;20619;-55
2023/01/19 02:24:13;;;;;;;10.37;8.33;;;;;;;;;;5093644;28;20444;-53
2023/01/19 02:26:42;;;;;;;11.27;8.90;;;;;;;;;;5093856;28;20472;-54
2023/01/19 02:29:08;;;;;;;10.67;8.80;;;;;;;;;;5093358;28;20440;-53
2023/01/19 02:31:36;;;;;;;12.03;8.27;;;;;;;;;;5093476;28;20797;-53
2023/01/19 02:34:02;;;;;;;10.40;9.20;;;;;;;;;;5093476;28;20467;-53
2023/01/19 02:36:32;;;;;;;12.93;9.73;;;;;;;;;;5093244;28;21009;-55
2023/01/19 02:38:59;;;;;;;12.47;9.57;;;;;;;;;;5093169;28;20456;-55
2023/01/19 02:41:28;;;;;;;11.87;9.77;;;;;;;;;;5093369;28;20482;-54
2023/01/19 02:43:56;;;;;;;12.97;9.27;;;;;;;;;;5093337;28;20444;-55
2023/01/19 02:46:22;;;;;;;14.07;9.30;;;;;;;;;;5093265;28;20472;-54
2023/01/19 02:48:48;;;;;;;12.27;10.13;;;;;;;;;;5093341;28;20432;-54
2023/01/19 02:51:15;;;;;;;10.43;9.40;;;;;;;;;;5093018;28;20679;-54
2023/01/19 02:53:53;;;;;;;13.23;9.43;;;;;;;;;;5093057;28;20256;-54
2023/01/19 02:56:44;;;;;;;12.40;9.33;;;;;;;;;;5093137;28;20437;-53
2023/01/19 02:59:15;;;;;;;10.83;9.73;;;;;;;;;;5077776;28;20444;-54
2023/01/19 03:01:48;;;;;;;11.77;9.97;;;;;;;;;;5092918;28;20485;-54
2023/01/19 03:04:20;;;;;;;12.27;9.30;;;;;;;;;;5092534;28;20462;-54
2023/01/19 03:06:48;;;;;;;13.23;10.37;;;;;;;;;;5092746;28;20443;-54
2023/01/19 03:09:16;;;;;;;14.73;10.00;;;;;;;;;;5092576;28;20437;-54
2023/01/19 03:11:46;;;;;;;15.10;10.03;;;;;;;;;;5092731;28;20784;-54
2023/01/19 03:14:17;;;;;;;11.67;9.90;;;;;;;;;;5092539;28;20474;-52
2023/01/19 03:16:46;;;;;;;13.63;10.60;;;;;;;;;;5092566;28;20976;-53
2023/01/19 03:19:15;;;;;;;13.63;9.87;;;;;;;;;;5092398;28;20425;-52
2023/01/19 03:21:42;;;;;;;12.30;10.13;;;;;;;;;;5092839;28;20472;-53
2023/01/19 03:24:10;;;;;;;13.70;10.40;;;;;;;;;;5092663;28;20425;-52
2023/01/19 03:26:38;;;;;;;12.97;11.27;;;;;;;;;;5092376;28;20930;-53
2023/01/19 03:29:05;;;;;;;13.27;10.67;;;;;;;;;;5091136;28;20919;-53
2023/01/19 03:31:33;;;;;;;15.03;10.60;;;;;;;;;;5092241;28;20949;-54
2023/01/19 03:34:01;;;;;;;11.33;10.13;;;;;;;;;;5092112;28;20445;-53
2023/01/19 03:36:31;;;;;;;12.50;10.40;;;;;;;;;;5092082;28;20476;-53
2023/01/19 03:38:57;;;;;;;12.43;10.27;;;;;;;;;;5092334;28;20461;-53
2023/01/19 03:41:25;;;;;;;14.70;11.00;;;;;;;;;;5092386;28;20503;-53
2023/01/19 03:43:52;;;;;;;12.90;10.27;;;;;;;;;;5092147;28;20456;-53
2023/01/19 03:46:20;;;;;;;13.33;10.57;;;;;;;;;;5092062;28;20440;-53
2023/01/19 03:48:48;;;;;;;10.93;9.53;;;;;;;;;;5092022;28;20436;-54
2023/01/19 03:51:15;;;;;;;13.03;10.40;;;;;;;;;;5091814;28;20452;-53
2023/01/19 03:53:42;;;;;;;14.60;11.13;;;;;;;;;;5091911;28;20429;-54
2023/01/19 03:56:13;;;;;;;13.67;10.20;;;;;;;;;;5091795;28;20495;-53
2023/01/19 03:58:39;;;;;;;12.17;10.10;;;;;;;;;;5091693;28;20476;-53
2023/01/19 04:01:05;;;;;;;11.87;9.93;;;;;;;;;;5091669;28;20504;-53
2023/01/19 04:03:31;;;;;;;14.03;11.47;;;;;;;;;;5091810;28;20931;-54
2023/01/19 04:05:58;;;;;;;15.93;11.23;;;;;;;;;;5091487;28;20199;-53
2023/01/19 04:08:24;;;;;;;11.77;10.13;;;;;;;;;;5091588;28;20444;-54
2023/01/19 04:10:50;;;;;;;11.83;10.63;;;;;;;;;;5091163;28;20475;-53
2023/01/19 04:13:16;;;;;;;11.17;10.07;;;;;;;;;;5091468;28;20219;-53
2023/01/19 04:15:42;;;;;;;12.97;11.13;;;;;;;;;;5091387;28;20601;-54
2023/01/19 04:18:08;;;;;;;13.83;11.47;;;;;;;;;;5091212;28;20481;-54
2023/01/19 04:20:34;;;;;;;16.10;10.63;;;;;;;;;;5091448;28;20199;-54
2023/01/19 04:23:01;;;;;;;12.07;10.40;;;;;;;;;;5091031;28;20477;-54
2023/01/19 04:25:27;;;;;;;11.80;10.23;;;;;;;;;;5091134;28;20425;-54
2023/01/19 04:27:54;;;;;;;11.67;10.47;;;;;;;;;;5091253;28;21122;-54
2023/01/19 04:30:21;;;;;;;13.50;10.90;;;;;;;;;;5091122;28;20510;-54
2023/01/19 04:32:47;;;;;;;14.33;10.53;;;;;;;;;;5091432;28;20455;-54
2023/01/19 04:35:13;;;;;;;12.90;10.30;;;;;;;;;;5090909;28;20820;-54
2023/01/19 04:37:39;;;;;;;12.03;10.13;;;;;;;;;;5070699;28;20208;-54
2023/01/19 04:40:07;;;;;;;11.77;10.27;;;;;;;;;;5070469;28;20624;-54
2023/01/19 04:42:33;;;;;;;13.27;10.80;;;;;;;;;;5070506;28;20219;-54
2023/01/19 04:44:59;;;;;;;12.57;10.77;;;;;;;;;;5070421;28;20814;-54
2023/01/19 04:47:25;;;;;;;12.77;10.83;;;;;;;;;;5070418;28;20199;-54
2023/01/19 04:49:51;;;;;;;14.47;10.20;;;;;;;;;;5070216;28;20274;-54
2023/01/19 04:52:17;;;;;;;10.97;9.87;;;;;;;;;;5070286;28;20728;-54
2023/01/19 04:54:43;;;;;;;12.40;11.00;;;;;;;;;;5070224;28;20683;-54
2023/01/19 04:57:11;;;;;;;15.77;11.03;;;;;;;;;;5070205;28;20430;-55
2023/01/19 04:59:37;;;;;;;11.77;10.53;;;;;;;;;;5070304;28;20204;-54
2023/01/19 05:02:03;;;;;;;12.17;10.87;;;;;;;;;;5069419;28;20511;-54
2023/01/19 05:04:28;;;;;;;11.73;10.47;;;;;;;;;;5070333;28;20278;-55
2023/01/19 05:06:54;;;;;;;12.37;10.27;;;;;;;;;;5070096;28;20658;-55
2023/01/19 05:09:20;;;;;;;13.43;10.63;;;;;;;;;;5070182;28;20258;-54
2023/01/19 05:11:46;;;;;;;11.50;10.30;;;;;;;;;;5070022;28;20279;-54
2023/01/19 05:14:14;;;;;;;12.20;10.17;;;;;;;;;;5069733;28;20601;-54
2023/01/19 05:16:40;;;;;;;10.47;9.37;;;;;;;;;;5070328;28;20294;-54
2023/01/19 05:19:06;;;;;;;12.90;10.33;;;;;;;;;;5069957;28;20499;-54
2023/01/19 05:21:32;;;;;;;11.13;9.83;;;;;;;;;;5069736;28;20993;-55
2023/01/19 05:23:58;;;;;;;12.90;10.17;;;;;;;;;;5069867;28;20497;-55
2023/01/19 05:26:24;;;;;;;13.67;10.97;;;;;;;;;;5069689;28;20196;-55
2023/01/19 05:28:50;;;;;;;11.23;10.00;;;;;;;;;;5069957;28;20487;-55
2023/01/19 05:31:18;;;;;;;12.70;10.27;;;;;;;;;;5069474;28;20434;-54
2023/01/19 05:33:44;;;;;;;12.27;10.17;;;;;;;;;;5069826;28;20203;-54
2023/01/19 05:36:10;;;;;;;18.37;10.87;;;;;;;;;;5075135;28;20489;-54
2023/01/19 05:38:36;;;;;;;12.33;10.90;;;;;;;;;;5089943;28;20199;-53
2023/01/19 05:41:02;;;;;;;16.90;11.77;;;;;;;;;;5089998;28;20190;-53
2023/01/19 05:43:28;;;;;;;12.77;10.90;;;;;;;;;;5090189;28;20194;-53
2023/01/19 05:45:54;;;;;;;13.13;11.23;;;;;;;;;;5090255;28;20773;-53
2023/01/19 05:48:21;;;;;;;12.53;10.90;;;;;;;;;;5090032;28;20210;-54
2023/01/19 05:50:48;;;;;;;15.07;11.27;;;;;;;;;;5089816;28;20494;-54
2023/01/19 05:53:15;;;;;;;15.77;12.10;;;;;;;;;;5090206;28;20451;-53
2023/01/19 05:55:41;;;;;;;12.93;11.63;;;;;;;;;;5089853;28;20843;-53
2023/01/19 05:58:07;;;;;;;16.87;11.67;;;;;;;;;;5090212;28;20421;-53
2023/01/19 06:00:33;;;;;;;16.00;11.63;;;;;;;;;;5090028;28;20902;-53
2023/01/19 06:02:59;;;;;;;18.20;11.47;;;;;;;;;;5089887;28;20227;-53
2023/01/19 06:05:26;;;;;;;12.37;11.03;;;;;;;;;;5090101;28;20195;-53
2023/01/19 06:07:52;;;;;;;15.63;11.63;;;;;;;;;;5089896;28;20433;-53
2023/01/19 06:10:18;;;;;;;13.57;11.60;;;;;;;;;;5089540;28;21005;-53
2023/01/19 06:12:44;;;;;;;14.57;11.60;;;;;;;;;;5089989;28;20191;-53
2023/01/19 06:15:11;;;;;;;13.40;11.47;;;;;;;;;;5089634;28;20479;-53
2023/01/19 06:17:37;;;;;;;12.87;10.40;;;;;;;;;;5089507;28;20520;-54
2023/01/19 06:20:04;;;;;;;13.60;10.80;;;;;;;;;;5089662;28;20521;-54
2023/01/19 06:22:31;;;;;;;12.93;10.60;;;;;;;;;;5089456;28;20473;-54
2023/01/19 06:24:57;;;;;;;13.33;10.73;;;;;;;;;;5089617;28;20824;-53
2023/01/19 06:27:23;;;;;;;11.03;9.93;;;;;;;;;;5089593;28;20441;-54
2023/01/19 06:29:49;;;;;;;12.23;10.53;;;;;;;;;;5089769;28;20625;-54
2023/01/19 06:32:16;;;;;;;11.13;9.93;;;;;;;;;;5089429;28;20191;-55
2023/01/19 06:34:42;;;;;;;13.90;11.37;;;;;;;;;;5089534;28;20432;-54
2023/01/19 06:37:10;;;;;;;12.57;10.30;;;;;;;;;;5089431;28;20556;-54
2023/01/19 06:39:44;;;;;;;17.13;11.50;;;;;;;;;;5089737;28;20520;-56
2023/01/19 06:42:10;;;;;;;11.80;9.93;;;;;;;;;;5089465;28;20480;-55
2023/01/19 06:44:36;;;;;;;15.87;11.37;;;;;;;;;;5089700;28;20455;-55
2023/01/19 06:47:02;;;;;;;14.53;10.63;;;;;;;;;;5089678;28;20436;-55
2023/01/19 06:49:28;;;;;;;10.93;9.53;;;;;;;;;;5089320;28;20780;-55
2023/01/19 06:51:54;;;;;;;11.23;9.53;;;;;;;;;;5089801;28;20195;-54
2023/01/19 06:54:21;;;;;;;10.50;9.13;;;;;;;;;;5089507;28;20202;-55
2023/01/19 06:56:48;;;;;;;10.17;8.63;;;;;;;;;;5089587;28;20663;-56
2023/01/19 06:59:14;;;;;;;13.13;9.87;;;;;;;;;;5089521;28;20441;-54
2023/01/19 07:01:40;;;;;;;12.63;9.80;;;;;;;;;;5089359;28;20477;-54
2023/01/19 07:04:06;;;;;;;11.70;9.53;;;;;;;;;;5091825;28;20996;-54
2023/01/19 07:06:32;;;;;;;11.50;9.33;;;;;;;;;;5093032;28;20195;-54
2023/01/19 07:08:59;;;;;;;11.87;8.57;;;;;;;;;;5092630;28;20436;-54
2023/01/19 07:11:25;;;;;;;12.17;9.37;;;;;;;;;;5093113;28;20278;-54
2023/01/19 07:13:53;;;;;;;12.03;8.97;;;;;;;;;;5092538;28;20433;-53
2023/01/19 07:16:19;;;;;;;10.80;9.30;;;;;;;;;;5092692;28;20813;-54
2023/01/19 07:18:47;;;;;;;11.47;8.63;;;;;;;;;;5092675;28;20511;-55
2023/01/19 07:21:14;;;;;;;13.53;9.10;;;;;;;;;;5092805;28;20187;-54
2023/01/19 07:23:40;;;;;;;9.63;8.63;;;;;;;;;;5092794;28;20440;-54
2023/01/19 07:26:06;;;;;;;12.20;9.13;;;;;;;;;;5092577;28;20437;-53
2023/01/19 07:28:32;;;;;;;10.53;7.90;;;;;;;;;;5092664;28;20440;-54
2023/01/19 07:31:00;;;;;;;11.07;8.97;;;;;;;;;;5092761;28;20437;-54
2023/01/19 07:33:26;;;;;;;9.87;8.40;;;;;;;;;;5092435;28;20433;-54
2023/01/19 07:35:53;;;;;;;10.37;8.90;;;;;;;;;;5092233;28;20473;-53
2023/01/19 07:38:19;;;;;;;9.30;8.47;;;;;;;;;;5092292;28;20485;-54
2023/01/19 07:40:45;;;;;;;9.80;8.80;;;;;;;;;;5092487;28;20932;-53
2023/01/19 07:43:12;;;;;;;10.07;8.40;;;;;;;;;;5092731;28;20522;-54
2023/01/19 07:45:38;;;;;;;11.03;8.53;;;;;;;;;;5080932;28;20927;-51
2023/01/19 07:48:05;;;;;;;11.03;8.33;;;;;;;;;;5087878;28;21001;-54
2023/01/19 07:50:32;;;;;;;10.60;8.60;;;;;;;;;;5090393;28;20449;-54
2023/01/19 07:53:03;;;;;;;12.20;8.33;;;;;;;;;;5092248;28;20471;-54
2023/01/19 07:55:29;;;;;;;12.03;8.53;;;;;;;;;;5091849;28;20437;-55
2023/01/19 07:57:55;;;;;;;9.73;8.73;;;;;;;;;;5092463;28;20494;-55
2023/01/19 08:00:23;;;;;;;9.60;8.70;;;;;;;;;;5091818;28;20275;-55
2023/01/19 08:02:50;;;;;;;9.20;8.30;;;;;;;;;;5091813;28;20234;-54
2023/01/19 08:05:17;;;;;;;10.30;9.23;;;;;;;;;;5091929;28;20480;-53
2023/01/19 08:07:45;;;;;;;10.30;8.57;;;;;;;;;;5091733;28;20445;-54
2023/01/19 08:10:11;;;;;;;11.00;9.00;;;;;;;;;;5091615;28;20871;-54
2023/01/19 08:12:37;;;;;;;10.37;9.17;;;;;;;;;;5091724;28;20508;-56
2023/01/19 08:15:03;;;;;;;11.30;9.30;;;;;;;;;;5091176;28;20437;-55
2023/01/19 08:17:29;;;;;;;10.13;9.13;;;;;;;;;;5091857;28;20476;-55
2023/01/19 08:19:56;;;;;;;11.70;10.37;;;;;;;;;;5091673;28;20453;-53
2023/01/19 08:22:23;;;;;;;11.10;9.97;;;;;;;;;;5091721;28;20247;-52
2023/01/19 08:24:50;;;;;;;11.87;9.60;;;;;;;;;;5079291;28;20454;-50
2023/01/19 08:27:16;;;;;;;11.00;9.83;;;;;;;;;;5092087;28;20523;-48
2023/01/19 08:29:42;;;;;;;11.77;10.57;;;;;;;;;;5089658;28;20508;-52
2023/01/19 08:32:08;;;;;;;10.60;9.60;;;;;;;;;;5089713;28;20197;-53
2023/01/19 08:34:34;;;;;;;12.00;10.67;;;;;;;;;;5091653;28;20194;-53
2023/01/19 08:37:00;;;;;;;11.43;10.23;;;;;;;;;;5105990;28;20482;-53
2023/01/19 08:39:28;;;;;;;10.33;9.23;;;;;;;;;;5109384;28;20221;-54
2023/01/19 08:41:54;;;;;;;11.47;10.37;;;;;;;;;;5111531;28;20229;-53
2023/01/19 08:44:20;;;;;;;11.87;10.53;;;;;;;;;;5111231;28;20437;-53
2023/01/19 08:46:46;;;;;;;13.40;11.60;;;;;;;;;;5111207;28;20432;-53
2023/01/19 08:49:12;;;;;;;12.87;11.57;;;;;;;;;;5110996;28;20437;-53
2023/01/19 08:51:38;;;;;;;14.97;12.20;;;;;;;;;;5111256;28;20446;-53
2023/01/19 08:54:04;;;;;;;14.53;13.03;;;;;;;;;;5110903;28;20480;-54
2023/01/19 08:56:31;;;;;;;13.17;11.83;;;;;;;;;;5111340;28;20485;-54
2023/01/19 08:58:57;;;;;;;13.33;12.03;;;;;;;;;;5111047;28;20467;-54
2023/01/19 09:01:24;;;;;;;13.70;12.30;;;;;;;;;;5110904;28;20941;-53
2023/01/19 09:03:50;;;;;;;14.90;12.57;;;;;;;;;;5111224;28;20568;-53
2023/01/19 09:06:18;;;;;;;15.07;13.40;;;;;;;;;;5111024;28;20439;-53
2023/01/19 09:08:44;;;;;;;13.30;11.90;;;;;;;;;;5111068;28;20531;-53
2023/01/19 09:11:10;;;;;;;12.87;11.60;;;;;;;;;;5110917;28;20448;-53
2023/01/19 09:13:38;;;;;;;14.40;12.97;;;;;;;;;;5110983;28;20439;-53
2023/01/19 09:16:06;;;;;;;15.73;14.13;;;;;;;;;;5110951;28;20521;-53
2023/01/19 09:18:32;;;;;;;14.90;13.40;;;;;;;;;;5110776;28;20497;-53
2023/01/19 09:20:58;;;;;;;14.63;13.17;;;;;;;;;;5110821;28;20436;-53
2023/01/19 09:23:24;;;;;;;15.30;13.70;;;;;;;;;;5110434;28;20495;-53
2023/01/19 09:25:55;;;;;;;16.20;12.77;;;;;;;;;;5109792;27;20519;-53
2023/01/19 09:28:21;;;;;;;14.80;13.30;;;;;;;;;;5110508;28;20433;-53
2023/01/19 09:30:49;;;;;;;16.13;14.43;;;;;;;;;;5110870;28;20443;-54
2023/01/19 09:33:16;;;;;;;14.20;12.73;;;;;;;;;;5110421;28;20444;-55
2023/01/19 09:35:42;;;;;;;16.00;14.40;;;;;;;;;;5110414;28;21044;-54
2023/01/19 09:38:09;;;;;;;15.67;14.07;;;;;;;;;;5110486;28;20815;-53
2023/01/19 09:40:35;;;;;;;15.77;14.17;;;;;;;;;;5110617;28;20428;-54
2023/01/19 09:43:05;;;;;;;14.87;13.43;;;;;;;;;;5110465;28;20482;-54
2023/01/19 09:45:35;;;;;;;14.40;13.03;;;;;;;;;;5110613;28;20523;-53
2023/01/19 09:48:05;;;;;;;13.80;12.40;;;;;;;;;;5110359;28;20949;-54
2023/01/19 09:50:33;;;;;;;14.70;13.20;;;;;;;;;;5110210;28;20443;-53
2023/01/19 09:53:03;;;;;;;13.80;12.50;;;;;;;;;;5110436;28;20475;-54
2023/01/19 09:55:30;;;;;;;13.53;12.23;;;;;;;;;;5108549;28;20793;-54
2023/01/19 09:57:56;;;;;;;13.53;12.13;;;;;;;;;;5110240;28;20450;-54
2023/01/19 10:00:23;;;;;;;13.70;12.40;;;;;;;;;;5110367;28;20602;-54
2023/01/19 10:02:51;;;;;;;13.33;11.97;;;;;;;;;;5110383;28;20322;-54
2023/01/19 10:05:24;;;;;;;13.63;12.03;;;;;;;;;;5110166;28;20523;-54
2023/01/19 10:07:56;;;;;;;13.33;12.03;;;;;;;;;;5110280;28;20444;-54
2023/01/19 10:10:24;;;;;;;12.37;11.17;;;;;;;;;;5110343;28;20436;-54
2023/01/19 10:13:13;;;;;;;13.40;11.97;;;;;;;;;;5108085;28;20933;-54
2023/01/19 10:15:45;;;;;;;12.93;11.63;;;;;;;;;;5109700;28;20800;-53
2023/01/19 10:18:12;;;;;;;12.73;11.53;;;;;;;;;;5110143;28;20436;-52
2023/01/19 10:20:41;;;;;;;12.53;11.27;;;;;;;;;;5110123;28;20438;-52
2023/01/19 10:23:16;;;;;;;13.00;11.70;;;;;;;;;;5109860;28;20483;-52
2023/01/19 10:25:42;;;;;;;13.13;11.83;;;;;;;;;;5110170;28;20443;-52
2023/01/19 10:28:10;;;;;;;12.10;10.67;;;;;;;;;;5110121;28;20436;-52
2023/01/19 10:30:36;;;;;;;11.77;10.57;;;;;;;;;;5110285;28;20446;-52
2023/01/19 10:33:01;;;;;;;11.90;10.80;;;;;;;;;;5109792;28;20437;-50
2023/01/19 10:35:28;;;;;;;11.77;10.57;;;;;;;;;;5109826;28;20252;-50
2023/01/19 10:37:58;;;;;;;11.70;10.60;;;;;;;;;;5112322;28;20255;-52
2023/01/19 10:40:30;;;;;;;10.23;9.33;;;;;;;;;;5114021;28;20446;-52
2023/01/19 10:42:56;;;;;;;9.57;8.67;;;;;;;;;;5113757;28;20973;-50
2023/01/19 10:45:24;;;;;;;10.70;9.70;;;;;;;;;;5113819;28;20470;-51
2023/01/19 10:47:52;;;;;;;10.97;9.97;;;;;;;;;;5113768;28;20906;-52
2023/01/19 10:50:22;;;;;;;11.03;9.93;;;;;;;;;;5113565;28;20443;-51
2023/01/19 10:52:49;;;;;;;11.10;9.23;;;;;;;;;;5113726;28;20922;-53
2023/01/19 10:55:23;;;;;;;9.50;8.67;;;;;;;;;;5113529;28;20424;-52
2023/01/19 10:57:51;;;;;;;10.47;9.47;;;;;;;;;;5113740;28;20856;-52
2023/01/19 11:00:29;;;;;;;9.97;9.07;;;;;;;;;;5113253;28;20906;-51
2023/01/19 11:02:55;;;;;;;9.60;8.73;;;;;;;;;;5113634;28;20475;-52
2023/01/19 11:05:22;;;;;;;9.40;8.50;;;;;;;;;;5113315;28;20456;-51
2023/01/19 11:07:48;;;;;;;9.67;8.77;;;;;;;;;;5113496;28;20443;-51
2023/01/19 11:10:23;;;;;;;8.60;7.53;;;;;;;;;;5103603;28;20441;-51
2023/01/19 11:12:55;;;;;;;10.00;9.00;;;;;;;;;;5093110;28;20277;-51
2023/01/19 11:15:22;;;;;;;9.50;8.60;;;;;;;;;;5092926;28;20433;-51
2023/01/19 11:17:49;;;;;;;11.03;10.03;;;;;;;;;;5092865;28;20433;-52
2023/01/19 11:20:19;;;;;;;12.00;10.70;;;;;;;;;;5092663;28;20440;-52
2023/01/19 11:22:45;;;;;;;12.90;11.60;;;;;;;;;;5092911;28;20567;-50
2023/01/19 11:25:20;;;;;;;10.43;9.40;;;;;;;;;;5092542;28;20429;-52
2023/01/19 11:27:50;;;;;;;9.73;8.73;;;;;;;;;;5092532;28;20843;-52
2023/01/19 11:30:17;;;;;;;8.90;8.07;;;;;;;;;;5092326;28;20433;-52
2023/01/19 11:32:43;;;;;;;10.00;8.90;;;;;;;;;;5092494;28;20456;-51
2023/01/19 11:35:35;;;;;;;10.07;9.00;;;;;;;;;;5092548;28;20931;-52
2023/01/19 11:38:05;;;;;;;10.73;9.77;;;;;;;;;;5092525;28;20649;-51
2023/01/19 11:40:32;;;;;;;11.03;9.93;;;;;;;;;;5081084;28;20894;-51
2023/01/19 11:43:00;;;;;;;10.03;9.13;;;;;;;;;;5092353;28;20476;-51
2023/01/19 11:45:26;;;;;;;9.90;9.00;;;;;;;;;;5092654;28;20448;-52
2023/01/19 11:47:52;;;;;;;9.83;8.83;;;;;;;;;;5092309;28;20849;-53
2023/01/19 11:50:22;;;;;;;9.77;8.87;;;;;;;;;;5091714;28;20433;-51
2023/01/19 11:52:52;;;;;;;10.30;9.30;;;;;;;;;;5092394;28;20241;-50
2023/01/19 11:55:22;;;;;;;10.57;9.57;;;;;;;;;;5092012;28;20445;-52
2023/01/19 11:57:48;;;;;;;10.57;9.47;;;;;;;;;;5092416;28;20444;-50
2023/01/19 12:00:22;;;;;;;11.10;10.10;;;;;;;;;;5092166;28;20436;-50
2023/01/19 12:02:50;;;;;;;9.83;8.83;;;;;;;;;;5089710;28;20469;-52
2023/01/19 12:05:19;;;;;;;10.50;9.50;;;;;;;;;;5088294;28;20528;-53
2023/01/19 12:07:47;;;;;;;10.17;9.17;;;;;;;;;;5091705;28;20424;-52
2023/01/19 12:10:19;;;;;;;10.47;9.37;;;;;;;;;;5091553;28;20439;-54
2023/01/19 12:12:46;;;;;;;9.77;8.70;;;;;;;;;;5091803;28;20453;-52
2023/01/19 12:15:21;;;;;;;10.13;9.03;;;;;;;;;;5091630;28;20429;-52
2023/01/19 12:17:49;;;;;;;8.87;7.63;;;;;;;;;;5091552;28;20444;-52
2023/01/19 12:20:20;;;;;;;9.97;8.37;;;;;;;;;;5091548;28;20437;-53
2023/01/19 12:22:50;;;;;;;10.23;9.17;;;;;;;;;;5091570;28;20485;-53
2023/01/19 12:25:20;;;;;;;8.30;7.60;;;;;;;;;;5091486;28;20437;-52
2023/01/19 12:27:47;;;;;;;8.97;7.93;;;;;;;;;;5091334;28;20429;-52
2023/01/19 12:30:16;;;;;;;10.10;8.77;;;;;;;;;;5091554;28;20440;-53
2023/01/19 12:32:42;;;;;;;10.50;8.43;;;;;;;;;;5091476;28;20524;-52
2023/01/19 12:35:35;;;;;;;11.33;8.80;;;;;;;;;;5091082;28;20500;-52
2023/01/19 12:38:01;;;;;;;9.47;8.20;;;;;;;;;;5091139;28;20214;-53
2023/01/19 12:40:30;;;;;;;9.13;8.17;;;;;;;;;;5091005;28;20480;-53
2023/01/19 12:42:57;;;;;;;12.70;8.40;;;;;;;;;;5091165;28;20309;-53
2023/01/19 12:45:24;;;;;;;10.30;8.30;;;;;;;;;;5090863;28;20475;-53
2023/01/19 12:47:51;;;;;;;10.47;8.13;;;;;;;;;;5091036;28;20453;-53
2023/01/19 12:50:19;;;;;;;9.70;7.97;;;;;;;;;;5090996;28;20435;-54
2023/01/19 12:52:50;;;;;;;12.60;8.40;;;;;;;;;;5090968;28;20438;-52
2023/01/19 12:55:19;;;;;;;11.67;7.90;;;;;;;;;;5090825;28;20437;-52
2023/01/19 12:57:52;;;;;;;10.93;7.80;;;;;;;;;;5090982;28;20440;-52
2023/01/19 13:00:31;;;;;;;10.20;8.30;;;;;;;;;;5090523;28;20991;-52
2023/01/19 13:02:58;;;;;;;9.50;7.27;;;;;;;;;;5090590;28;20487;-53
2023/01/19 13:05:46;;;;;;;10.77;7.87;;;;;;;;;;5088563;28;20452;-53
2023/01/19 13:08:16;;;;;;;9.93;6.97;;;;;;;;;;5090133;28;20468;-54
2023/01/19 13:11:09;;;;;;;14.10;6.97;;;;;;;;;;5090760;28;20426;-55
2023/01/19 13:13:36;;;;;;;8.33;6.10;;;;;;;;;;5090008;28;20494;-53
2023/01/19 13:16:23;;;;;;;10.43;5.13;;;;;;;;;;5090633;28;20437;-53
2023/01/19 13:18:51;;;;;;;9.40;5.03;;;;;;;;;;5090064;28;20961;-52
2023/01/19 13:21:27;;;;;;;9.80;5.70;;;;;;;;;;5090074;28;21154;-53
2023/01/19 13:23:55;;;;;;;8.83;4.80;;;;;;;;;;5090090;28;20460;-53
2023/01/19 13:26:22;;;;;;;7.27;4.70;;;;;;;;;;5090070;28;20930;-53
2023/01/19 13:28:49;;;;;;;14.73;5.10;;;;;;;;;;5090268;28;20456;-53
2023/01/19 13:31:15;;;;;;;8.77;4.77;;;;;;;;;;5089923;28;20457;-53
2023/01/19 13:33:45;;;;;;;10.03;5.37;;;;;;;;;;5090172;28;20881;-53
2023/01/19 13:36:27;;;;;;;8.23;4.73;;;;;;;;;;5089999;28;20897;-53
2023/01/19 13:38:54;;;;;;;13.87;4.93;;;;;;;;;;5089765;28;20511;-52
2023/01/19 13:41:22;;;;;;;9.30;4.47;;;;;;;;;;5090107;28;20451;-52
2023/01/19 13:43:49;;;;;;;10.40;4.83;;;;;;;;;;5090399;28;20477;-53
2023/01/19 13:46:17;;;;;;;11.63;5.00;;;;;;;;;;5089889;28;20444;-53
2023/01/19 13:48:51;;;;;;;10.83;4.73;;;;;;;;;;5089936;28;20568;-53
2023/01/19 13:51:18;;;;;;;10.10;5.20;;;;;;;;;;5089719;28;20864;-53
2023/01/19 13:53:53;;;;;;;10.37;4.87;;;;;;;;;;5089914;28;20267;-52
2023/01/19 13:56:21;;;;;;;11.13;4.50;;;;;;;;;;5089900;28;20432;-53
2023/01/19 13:59:03;;;;;;;8.80;4.70;;;;;;;;;;5089999;28;20436;-52
2023/01/19 14:01:31;;;;;;;7.23;3.87;;;;;;;;;;5089774;28;20441;-53
2023/01/19 14:03:57;;;;;;;8.23;3.90;;;;;;;;;;5089825;28;20594;-53
2023/01/19 14:06:31;;;;;;;8.53;4.00;;;;;;;;;;5089503;28;20433;-53
2023/01/19 14:09:16;;;;;;;9.87;3.53;;;;;;;;;;5089751;28;20203;-52
2023/01/19 14:11:42;;;;;;;9.97;3.77;;;;;;;;;;5089907;28;20218;-53
2023/01/19 14:14:21;;;;;;;7.80;3.10;;;;;;;;;;5094231;28;20277;-53
2023/01/19 14:16:47;;;;;;;8.53;3.17;;;;;;;;;;5093796;28;20210;-57
2023/01/19 14:19:13;;;;;;;9.83;3.27;;;;;;;;;;5093740;28;20429;-54
2023/01/19 14:21:40;;;;;;;9.40;2.97;;;;;;;;;;5093343;28;20681;-53
2023/01/19 14:24:06;;;;;;;7.23;2.70;;;;;;;;;;5093696;28;20433;-52
2023/01/19 14:26:42;;;;;;;10.47;3.30;;;;;;;;;;5093562;28;20441;-53
2023/01/19 14:29:15;;;;;;;6.27;2.20;;;;;;;;;;5093748;28;20233;-54
2023/01/19 14:31:42;;;;;;;7.93;3.77;;;;;;;;;;5093553;28;20256;-53
2023/01/19 14:34:27;;;;;;;9.13;2.87;;;;;;;;;;5093379;28;20207;-57
2023/01/19 14:36:54;;;;;;;7.13;2.33;;;;;;;;;;5093313;28;20242;-53
2023/01/19 14:39:22;;;;;;;10.97;2.93;;;;;;;;;;5093851;28;20199;-53
2023/01/19 14:41:51;;;;;;;6.57;2.33;;;;;;;;;;5093273;28;20286;-53